Startpagina
METAR-TAF:

METAR-TAF

Vliegvelden :

Nadi, Fiji

Nadi International Airport

breedte: 17-45S, lengte: 177-27E, hoogte: 13 m

Actueel weer

Dit bericht is 13 minuten geleden gemaakt, om 16:00 UTC
Wind 4 kt uit het noordoosten, variërend tussen het noorden en het oosten
Temperatuur 23°C
Vochtigheid 78%
Druk 1013 hPa
Zicht 10 km of meer
Weinig wolken op 3000 ft

METAR: NFFN 261600Z 05004KT 010V080 9999 FEW030 23/19 Q1013 NOSIG

Tijdstip: 04:13 (16:13 UTC)

Verwachting

Dit bericht is 5 uur en het 13 minuten geleden gemaakt, om 11:00 UTC
Verwachting geldig van 26 om 12 UTC tot 27 om 12 UTC
Wind 8 kt uit het oostzuidoosten
Zicht 10 km of meer
Weinig wolken op 2500 ft
Verspreide wolken op 5000 ft
Wijzigt naar
van 26 om 21 UTC tot 26 om 23 UTC
Wind 12 kt uit het westen
Wijzigt naar
van 27 om 04 UTC tot 27 om 06 UTC
Wind 6 kt uit het oosten

TAF: NFFN 261100Z 2612/2712 11008KT 9999 FEW025 SCT050 BECMG 2621/2623 28012KT BECMG 2704/2706 10006KT

Waarnemingen en weersverwachtingen van meer dan 4000 vliegvelden (METAR en TAF).

De beschikbare stations zijn de gele en rode punten op de kaart.

Ga met uw muis naar het station om de naam te zien.

Klik dan om waarnemingen en weersverwachtingen te zien.

kaart wijzigen: klik op de groene knoppen met een zwart kruis om in te zoomen, op de groene knop met een streepje om uit te zoomen of op de groene pijlen voor aangrenzende kaarten.


METAR-TAF: